メインページ
METAR-TAF:

METAR-TAF

空港 :

Taunton Municipal Airport (King Field)

トーントン, マサチューセッツ州, アメリカ合衆国

緯度: 41-52-32N, 経度: 071-01-16W, 海抜: 13m

現時点の気象観測

当レポートは17分前の15:52(UTC)に作成
無風
気温 -8°C
湿度 41%
気圧 1032 hPa
視程: 16.1km
晴天

METAR: KTAN 181552Z AUTO 00000KT 10SM CLR M08/M19 A3048 RMK AO2 SLP321 T10831194

時間: 11:09 (16:09 UTC)


TAF: 見つかりません

4,000以上の空港の気象観測と天気予報(METAR報とTAF報)

利用可能な観測所は地図上に黄色い丸と赤い丸で示す。

丸の上にカーソルを重ねると観測所名を参照できる。

次にクリックすると気象観測と天気予報を参照できる。

マップの切り替え:黒色「×」印の緑ボタンをクリックして拡大、「-」印の緑ボタンをクリックして縮小、緑色の三角印をクリックして隣りの地図に切り替え


METAR-TAF: